Time;durP1;ratioP1;P1;durP2;ratioP2;P2;SDS_P1;SDS_P2;PMS_P1;PMS_P2;Temp;Humidity;BMP_temperature;BMP_pressure;BME280_temperature;BME280_humidity;BME280_pressure;Samples;Min_cycle;Max_cycle;Signal;HPM_P1;HPM_P2
2022/07/05 00:00:47;;;;;;;7.65;5.90;;;;;;;17.49;100.00;98489.09;2627822;28;20048;-86
2022/07/05 00:02:03;;;;;;;6.35;5.72;;;;;;;17.42;100.00;98487.69;2627568;28;20414;-83
2022/07/05 00:03:19;;;;;;;6.07;5.47;;;;;;;17.51;100.00;98480.09;2627816;28;20639;-84
2022/07/05 00:04:34;;;;;;;7.10;6.03;;;;;;;17.62;100.00;98478.66;2627311;28;20063;-83
2022/07/05 00:05:50;;;;;;;9.32;6.53;;;;;;;17.59;100.00;98489.41;2627463;28;20048;-83
2022/07/05 00:07:18;;;;;;;7.65;6.88;;;;;;;17.51;100.00;98482.75;2627693;28;20069;-83
2022/07/05 00:08:34;;;;;;;7.88;6.22;;;;;;;17.49;100.00;98487.28;2627863;28;20228;-82
2022/07/05 00:09:53;;;;;;;6.57;5.93;;;;;;;17.64;100.00;98488.22;2627692;28;20463;-83
2022/07/05 00:11:08;;;;;;;7.38;5.90;;;;;;;17.65;100.00;98484.63;2627725;28;20131;-82
2022/07/05 00:12:31;;;;;;;6.60;5.90;;;;;;;17.59;100.00;98484.97;2616462;28;20059;-83
2022/07/05 00:13:47;;;;;;;7.25;5.75;;;;;;;17.50;100.00;98488.16;2611116;28;20067;-83
2022/07/05 00:15:03;;;;;;;8.27;5.30;;;;;;;17.60;100.00;98489.34;2620927;28;20121;-83
2022/07/05 00:16:18;;;;;;;6.57;5.82;;;;;;;17.61;100.00;98483.09;2627634;28;20146;-83
2022/07/05 00:17:34;;;;;;;5.93;5.10;;;;;;;17.65;100.00;98484.63;2627754;28;20047;-83
2022/07/05 00:18:50;;;;;;;5.25;4.50;;;;;;;17.69;100.00;98484.44;2627724;28;20043;-83
2022/07/05 00:20:07;;;;;;;6.82;5.63;;;;;;;17.62;100.00;98484.81;2627249;28;20058;-83
2022/07/05 00:21:22;;;;;;;7.32;5.05;;;;;;;17.53;100.00;98487.97;2627987;28;20511;-83
2022/07/05 00:22:38;;;;;;;5.88;5.28;;;;;;;17.46;100.00;98481.28;2627338;28;20532;-83
2022/07/05 00:23:53;;;;;;;7.30;6.10;;;;;;;17.36;100.00;98479.19;2627548;28;20048;-84
2022/07/05 00:25:09;;;;;;;6.15;5.57;;;;;;;17.30;100.00;98476.84;2627659;28;20071;-84
2022/07/05 00:26:24;;;;;;;6.18;4.90;;;;;;;17.34;100.00;98475.78;2627030;28;20063;-83
2022/07/05 00:27:40;;;;;;;8.07;5.38;;;;;;;17.33;100.00;98474.06;2627472;28;20494;-84
2022/07/05 00:28:56;;;;;;;6.25;5.65;;;;;;;17.30;100.00;98471.56;2627368;28;20050;-88
2022/07/05 00:30:14;;;;;;;9.60;6.32;;;;;;;17.26;100.00;98466.53;2627514;28;20086;-87
2022/07/05 00:31:29;;;;;;;8.77;6.95;;;;;;;17.24;100.00;98471.91;2627377;28;20566;-83
2022/07/05 00:32:45;;;;;;;8.20;6.38;;;;;;;17.20;100.00;98470.38;2627636;28;20051;-83
2022/07/05 00:34:01;;;;;;;6.97;6.28;;;;;;;17.15;100.00;98470.63;2627278;28;20502;-85
2022/07/05 00:35:16;;;;;;;7.25;6.10;;;;;;;17.13;100.00;98474.28;2627451;28;20542;-83
2022/07/05 00:36:32;;;;;;;9.25;6.93;;;;;;;17.11;100.00;98471.72;2627347;28;20064;-83
2022/07/05 00:37:48;;;;;;;7.78;6.78;;;;;;;17.06;100.00;98472.00;2627242;28;20435;-84
2022/07/05 00:39:04;;;;;;;7.45;6.75;;;;;;;17.07;100.00;98478.13;2627372;28;20044;-84
2022/07/05 00:40:20;;;;;;;10.55;6.95;;;;;;;17.11;100.00;98481.47;2627376;28;20048;-83
2022/07/05 00:41:36;;;;;;;8.52;6.78;;;;;;;17.11;100.00;98484.09;2627256;28;20043;-86
2022/07/05 00:42:52;;;;;;;7.20;6.43;;;;;;;17.08;100.00;98479.81;2627361;28;20490;-83
2022/07/05 00:44:11;;;;;;;7.85;6.45;;;;;;;17.11;100.00;98484.94;2627403;28;20048;-84
2022/07/05 00:45:27;;;;;;;7.95;5.60;;;;;;;17.15;100.00;98485.63;2615876;28;20098;-83
2022/07/05 00:46:43;;;;;;;6.65;5.20;;;;;;;17.14;100.00;98478.63;2610042;28;20141;-83
2022/07/05 00:47:59;;;;;;;5.80;5.30;;;;;;;17.00;100.00;98479.41;2615830;28;20523;-83
2022/07/05 00:49:15;;;;;;;6.50;5.55;;;;;;;16.87;100.00;98480.03;2620184;28;20471;-86
2022/07/05 00:50:30;;;;;;;6.00;5.50;;;;;;;16.86;100.00;98474.81;2626905;28;20134;-83
2022/07/05 00:51:46;;;;;;;6.88;5.63;;;;;;;16.77;100.00;98477.03;2627350;28;20078;-85
2022/07/05 00:53:02;;;;;;;6.38;5.78;;;;;;;16.80;100.00;98476.84;2627480;28;20066;-84
2022/07/05 00:54:18;;;;;;;6.63;5.57;;;;;;;16.78;100.00;98476.09;2627268;28;20407;-84
2022/07/05 00:55:34;;;;;;;7.10;5.82;;;;;;;16.80;100.00;98479.50;2627433;28;20044;-83
2022/07/05 00:56:50;;;;;;;9.30;5.90;;;;;;;16.74;100.00;98477.16;2627303;28;20066;-84
2022/07/05 00:58:06;;;;;;;6.57;5.88;;;;;;;16.74;100.00;98471.03;2627007;28;20376;-84
2022/07/05 00:59:22;;;;;;;7.30;6.03;;;;;;;16.73;100.00;98478.09;2627366;28;20052;-84
2022/07/05 01:00:37;;;;;;;9.70;5.68;;;;;;;16.73;100.00;98475.44;2627150;28;20044;-84
2022/07/05 01:01:53;;;;;;;6.55;5.50;;;;;;;16.67;100.00;98473.97;2627247;28;20063;-89
2022/07/05 01:03:09;;;;;;;10.20;5.88;;;;;;;16.67;100.00;98476.63;2616043;28;20076;-84
2022/07/05 01:04:25;;;;;;;7.18;5.72;;;;;;;16.66;100.00;98480.22;2620414;28;20613;-84
2022/07/05 01:05:41;;;;;;;9.05;5.97;;;;;;;16.59;100.00;98472.69;2627073;28;20047;-85
2022/07/05 01:06:57;;;;;;;6.28;5.43;;;;;;;16.67;100.00;98475.78;2627031;28;20089;-84
2022/07/05 01:08:13;;;;;;;6.75;6.05;;;;;;;16.74;100.00;98474.50;2627326;28;20040;-84
2022/07/05 01:09:28;;;;;;;10.85;6.13;;;;;;;16.89;100.00;98477.28;2627350;28;20055;-84
2022/07/05 01:10:44;;;;;;;7.35;6.00;;;;;;;16.88;100.00;98480.84;2627615;28;20135;-84
2022/07/05 01:11:59;;;;;;;7.13;5.53;;;;;;;16.87;100.00;98484.44;2626870;28;20079;-83
2022/07/05 01:13:15;;;;;;;8.50;5.25;;;;;;;16.90;100.00;98477.22;2627072;28;20060;-84
2022/07/05 01:14:31;;;;;;;6.28;5.32;;;;;;;16.86;100.00;98480.09;2627173;28;20059;-83
2022/07/05 01:15:48;;;;;;;8.90;5.90;;;;;;;16.91;100.00;98475.44;2627131;28;20117;-83
2022/07/05 01:17:03;;;;;;;8.57;5.60;;;;;;;16.85;100.00;98479.25;2627018;28;20071;-85
2022/07/05 01:18:20;;;;;;;6.28;5.63;;;;;;;16.89;100.00;98479.91;2627044;28;20536;-84
2022/07/05 01:19:37;;;;;;;6.88;5.07;;;;;;;16.86;100.00;98472.16;2627111;28;20130;-83
2022/07/05 01:20:54;;;;;;;8.02;5.68;;;;;;;16.81;100.00;98477.69;2627200;28;20521;-84
2022/07/05 01:22:17;;;;;;;6.63;5.47;;;;;;;16.80;100.00;98470.69;2626819;28;20101;-84
2022/07/05 01:23:33;;;;;;;5.40;4.75;;;;;;;16.72;100.00;98473.75;2627357;28;20063;-83
2022/07/05 01:24:50;;;;;;;6.20;4.50;;;;;;;16.68;100.00;98480.13;2626692;28;20388;-83
2022/07/05 01:26:07;;;;;;;5.22;4.50;;;;;;;16.71;100.00;98482.63;2627054;28;20051;-83
2022/07/05 01:27:22;;;;;;;5.28;4.78;;;;;;;16.72;100.00;98473.75;2615835;28;20060;-86
2022/07/05 01:28:38;;;;;;;6.07;4.75;;;;;;;16.72;100.00;98476.38;2620245;28;20477;-84
2022/07/05 01:29:53;;;;;;;10.88;4.80;;;;;;;16.76;100.00;98472.66;2627001;28;20052;-84
2022/07/05 01:31:09;;;;;;;5.50;4.82;;;;;;;16.71;100.00;98474.69;2627074;28;20521;-85
2022/07/05 01:32:24;;;;;;;5.70;5.20;;;;;;;16.67;100.00;98476.63;2626679;28;20059;-84
2022/07/05 01:33:40;;;;;;;7.95;5.15;;;;;;;16.69;100.00;98471.28;2615969;28;20048;-84
2022/07/05 01:34:56;;;;;;;5.45;4.95;;;;;;;16.67;100.00;98473.97;2620069;28;20089;-83
2022/07/05 01:36:12;;;;;;;6.63;4.80;;;;;;;16.65;100.00;98475.03;2627246;28;20529;-83
2022/07/05 01:37:29;;;;;;;6.68;5.50;;;;;;;16.69;100.00;98476.56;2626913;28;20055;-86
2022/07/05 01:38:45;;;;;;;6.68;4.97;;;;;;;16.65;100.00;98472.38;2627042;28;20739;-84
2022/07/05 01:40:06;;;;;;;7.55;5.35;;;;;;;16.67;100.00;98471.34;2626777;28;20567;-90
2022/07/05 01:41:21;;;;;;;12.32;4.95;;;;;;;16.62;100.00;98469.88;2627054;28;20076;-84
2022/07/05 01:42:37;;;;;;;5.53;4.88;;;;;;;16.61;100.00;98470.81;2626794;28;20418;-83
2022/07/05 01:43:52;;;;;;;6.68;5.20;;;;;;;16.57;100.00;98467.50;2627121;28;20495;-83
2022/07/05 01:45:08;;;;;;;7.05;4.93;;;;;;;16.57;100.00;98471.91;2626752;28;20129;-83
2022/07/05 01:46:28;;;;;;;9.15;4.70;;;;;;;16.54;100.00;98470.28;2626628;28;20055;-86
2022/07/05 01:47:45;;;;;;;9.32;4.43;;;;;;;16.54;100.00;98469.44;2619553;28;20060;-84
2022/07/05 01:49:05;;;;;;;4.82;4.43;;;;;;;16.49;100.00;98475.81;2624168;28;20070;-83
2022/07/05 01:50:21;;;;;;;6.35;4.13;;;;;;;16.47;100.00;98469.75;2626901;28;20048;-89
2022/07/05 01:51:57;;;;;;;6.25;4.20;;;;;;;16.46;100.00;98467.19;2626936;28;20138;-84
2022/07/05 01:53:23;;;;;;;6.50;4.50;;;;;;;16.46;100.00;98473.31;2627037;28;20044;-83
2022/07/05 01:54:40;;;;;;;7.40;4.72;;;;;;;16.45;100.00;98465.50;2626810;28;20048;-83
2022/07/05 01:56:00;;;;;;;5.40;4.90;;;;;;;16.43;100.00;98473.47;2626826;28;20421;-84
2022/07/05 01:57:16;;;;;;;7.50;4.65;;;;;;;16.43;100.00;98472.66;2626744;28;20430;-83
2022/07/05 01:58:32;;;;;;;5.97;5.22;;;;;;;16.47;100.00;98475.03;2626616;28;20421;-87
2022/07/05 01:59:48;;;;;;;7.43;5.10;;;;;;;16.46;100.00;98481.25;2626817;28;20559;-83
2022/07/05 02:01:04;;;;;;;7.55;4.82;;;;;;;16.51;100.00;98481.00;2626989;28;20071;-83
2022/07/05 02:02:20;;;;;;;6.45;5.20;;;;;;;16.48;100.00;98474.13;2626467;28;20860;-83
2022/07/05 02:03:36;;;;;;;4.60;4.20;;;;;;;16.46;100.00;98477.75;2627088;28;20071;-83
2022/07/05 02:04:52;;;;;;;6.13;4.55;;;;;;;16.42;100.00;98477.06;2615372;28;20052;-85
2022/07/05 02:06:10;;;;;;;4.85;4.35;;;;;;;16.37;100.00;98466.72;2620177;28;20399;-83
2022/07/05 02:07:25;;;;;;;6.75;4.60;;;;;;;16.37;100.00;98473.81;2626798;28;20055;-85
2022/07/05 02:08:41;;;;;;;5.05;4.55;;;;;;;16.45;100.00;98473.41;2626833;28;20047;-84
2022/07/05 02:09:56;;;;;;;7.53;4.05;;;;;;;16.39;100.00;98477.22;2626821;28;20079;-83
2022/07/05 02:11:12;;;;;;;4.28;3.88;;;;;;;16.38;100.00;98467.59;2626678;28;20366;-84
2022/07/05 02:12:27;;;;;;;4.72;4.05;;;;;;;16.34;100.00;98468.66;2626702;28;20139;-83
2022/07/05 02:13:43;;;;;;;6.45;4.00;;;;;;;16.30;100.00;98470.63;2626904;28;20040;-83
2022/07/05 02:14:58;;;;;;;4.85;4.15;;;;;;;16.29;100.00;98475.97;2626737;28;20127;-83
2022/07/05 02:16:14;;;;;;;7.57;4.30;;;;;;;16.28;100.00;98474.28;2626653;28;20077;-86
2022/07/05 02:17:30;;;;;;;4.75;4.35;;;;;;;16.26;100.00;98476.13;2626901;28;20104;-84
2022/07/05 02:18:45;;;;;;;4.35;4.00;;;;;;;16.23;100.00;98478.00;2626910;28;20048;-84
2022/07/05 02:20:02;;;;;;;4.75;3.90;;;;;;;16.23;100.00;98480.66;2626554;28;20051;-84
2022/07/05 02:21:18;;;;;;;4.68;4.18;;;;;;;16.20;100.00;98478.16;2626741;28;20083;-84
2022/07/05 02:22:34;;;;;;;8.23;5.13;;;;;;;16.16;100.00;98479.22;2626687;28;20992;-85
2022/07/05 02:23:50;;;;;;;7.03;4.47;;;;;;;16.16;100.00;98483.69;2626456;28;20078;-84
2022/07/05 02:25:06;;;;;;;6.63;5.10;;;;;;;16.05;100.00;98484.19;2626345;28;20044;-85
2022/07/05 02:26:22;;;;;;;4.95;4.53;;;;;;;16.11;100.00;98483.91;2626882;28;20048;-83
2022/07/05 02:27:37;;;;;;;5.20;4.32;;;;;;;16.17;100.00;98483.59;2626689;28;20048;-84
2022/07/05 02:28:53;;;;;;;7.93;4.70;;;;;;;16.20;100.00;98485.22;2626622;28;20542;-84
2022/07/05 02:30:09;;;;;;;6.78;4.32;;;;;;;16.23;100.00;98480.66;2626694;28;20075;-83
2022/07/05 02:31:25;;;;;;;5.50;4.40;;;;;;;16.30;100.00;98488.25;2626342;28;20052;-84
2022/07/05 02:32:41;;;;;;;6.60;4.63;;;;;;;16.30;100.00;98482.97;2626576;28;20135;-83
2022/07/05 02:33:57;;;;;;;4.38;3.97;;;;;;;16.17;100.00;98478.31;2626766;28;20059;-83
2022/07/05 02:35:14;;;;;;;4.72;3.65;;;;;;;16.08;100.00;98476.97;2626567;28;20506;-90
2022/07/05 02:36:29;;;;;;;5.40;3.58;;;;;;;16.02;100.00;98479.94;2626237;28;20044;-84
2022/07/05 02:37:45;;;;;;;6.45;4.30;;;;;;;16.06;100.00;98475.34;2626382;28;20510;-84
2022/07/05 02:39:01;;;;;;;6.40;3.80;;;;;;;16.09;100.00;98480.50;2626623;28;20048;-85
2022/07/05 02:40:17;;;;;;;5.32;3.78;;;;;;;16.08;100.00;98484.06;2626851;28;20059;-84
2022/07/05 02:41:33;;;;;;;4.20;3.80;;;;;;;16.09;100.00;98481.34;2626313;28;20048;-83
2022/07/05 02:42:48;;;;;;;4.30;3.90;;;;;;;16.09;100.00;98480.50;2626794;28;20565;-83
2022/07/05 02:44:03;;;;;;;4.78;4.38;;;;;;;16.10;100.00;98485.69;2628354;28;20406;-85
2022/07/05 02:45:19;;;;;;;4.45;3.95;;;;;;;16.09;100.00;98483.13;2628758;28;20573;-85
2022/07/05 02:46:35;;;;;;;4.28;3.92;;;;;;;16.07;100.00;98493.75;2617068;28;20056;-84
2022/07/05 02:47:50;;;;;;;5.35;4.35;;;;;;;16.05;100.00;98489.47;2621358;28;20223;-85
2022/07/05 02:49:06;;;;;;;6.75;4.18;;;;;;;16.03;100.00;98491.34;2628520;28;20044;-88
2022/07/05 02:50:22;;;;;;;4.88;4.40;;;;;;;16.02;100.00;98494.91;2628916;28;20056;-84
2022/07/05 02:51:37;;;;;;;6.68;4.45;;;;;;;16.00;100.00;98495.00;2628411;28;20422;-84
2022/07/05 02:52:53;;;;;;;6.05;4.90;;;;;;;16.00;100.00;98496.78;2617238;28;20048;-84
2022/07/05 02:54:08;;;;;;;6.05;4.65;;;;;;;15.94;100.00;98495.31;2621704;28;20039;-85
2022/07/05 02:55:24;;;;;;;6.25;4.10;;;;;;;15.92;100.00;98497.16;2628432;28;20059;-84
2022/07/05 02:56:39;;;;;;;5.80;4.07;;;;;;;15.90;100.00;98496.38;2628543;28;20047;-84
2022/07/05 02:57:55;;;;;;;5.10;3.90;;;;;;;16.01;100.00;98503.78;2628394;28;20060;-85
2022/07/05 02:59:10;;;;;;;4.28;3.72;;;;;;;16.06;100.00;98496.47;2628479;28;20525;-85
2022/07/05 03:00:26;;;;;;;4.47;3.70;;;;;;;16.13;100.00;98495.25;2628254;28;20051;-85
2022/07/05 03:01:42;;;;;;;6.57;3.53;;;;;;;16.13;100.00;98502.31;2628362;28;20052;-84
2022/07/05 03:02:57;;;;;;;4.20;3.83;;;;;;;16.17;100.00;98495.97;2628277;28;20117;-87
2022/07/05 03:04:13;;;;;;;4.97;3.78;;;;;;;16.17;100.00;98502.06;2628539;28;20063;-84
2022/07/05 03:05:29;;;;;;;4.45;4.05;;;;;;;16.14;100.00;98507.53;2628589;28;20410;-85
2022/07/05 03:06:45;;;;;;;7.75;4.32;;;;;;;16.05;100.00;98500.03;2628221;28;20130;-85
2022/07/05 03:08:00;;;;;;;4.63;4.20;;;;;;;16.00;100.00;98510.84;2628746;28;20058;-84
2022/07/05 03:09:16;;;;;;;7.38;4.53;;;;;;;16.01;100.00;98519.63;2628367;28;20047;-84
2022/07/05 03:10:32;;;;;;;5.90;4.10;;;;;;;16.07;100.00;98522.81;2616917;28;20058;-84
2022/07/05 03:11:48;;;;;;;6.63;4.20;;;;;;;16.09;100.00;98520.09;2621435;28;20044;-84
2022/07/05 03:13:03;;;;;;;6.07;4.35;;;;;;;16.02;100.00;98532.75;2628269;28;20047;-84
2022/07/05 03:14:19;;;;;;;5.25;4.05;;;;;;;16.11;100.00;98526.16;2628261;28;20524;-84
2022/07/05 03:15:35;;;;;;;4.93;4.53;;;;;;;16.13;100.00;98526.06;2628177;28;20494;-83
2022/07/05 03:16:51;;;;;;;5.93;4.50;;;;;;;16.11;100.00;98531.44;2628363;28;20059;-85
2022/07/05 03:18:06;;;;;;;6.15;4.43;;;;;;;16.10;100.00;98525.28;2628171;28;20127;-84
2022/07/05 03:19:22;;;;;;;6.07;4.68;;;;;;;16.06;100.00;98534.31;2628417;28;21226;-84
2022/07/05 03:20:38;;;;;;;6.70;4.53;;;;;;;15.99;100.00;98526.75;2628244;28;20052;-85
2022/07/05 03:21:53;;;;;;;7.65;4.85;;;;;;;15.99;100.00;98534.69;2628164;28;20048;-85
2022/07/05 03:23:09;;;;;;;5.65;4.60;;;;;;;16.01;100.00;98532.81;2628416;28;20137;-85
2022/07/05 03:24:24;;;;;;;5.70;4.50;;;;;;;16.02;100.00;98538.03;2616512;28;20051;-84
2022/07/05 03:25:40;;;;;;;5.63;4.43;;;;;;;16.07;100.00;98533.38;2621581;28;20040;-84
2022/07/05 03:26:56;;;;;;;5.78;4.38;;;;;;;16.01;100.00;98533.69;2628412;28;20628;-88
2022/07/05 03:28:11;;;;;;;6.45;4.97;;;;;;;16.02;100.00;98531.88;2628227;28;20044;-84
2022/07/05 03:29:27;;;;;;;7.03;4.20;;;;;;;16.08;100.00;98532.44;2627466;28;20112;-84
2022/07/05 03:30:43;;;;;;;7.93;4.85;;;;;;;16.10;100.00;98540.31;2627539;28;20052;-88
2022/07/05 03:31:58;;;;;;;6.13;4.57;;;;;;;16.11;100.00;98536.72;2628125;28;20044;-86
2022/07/05 03:33:14;;;;;;;4.85;4.40;;;;;;;16.05;100.00;98540.53;2628130;28;20048;-85
2022/07/05 03:34:29;;;;;;;5.95;4.35;;;;;;;16.02;100.00;98545.09;2628033;28;20052;-85
2022/07/05 03:35:45;;;;;;;9.20;3.97;;;;;;;16.00;100.00;98534.63;2627848;28;20311;-84
2022/07/05 03:37:02;;;;;;;9.75;4.63;;;;;;;16.06;100.00;98538.72;2628091;28;20040;-85
2022/07/05 03:38:18;;;;;;;5.60;4.50;;;;;;;16.00;100.00;98537.25;2628031;28;20490;-85
2022/07/05 03:39:33;;;;;;;6.95;4.72;;;;;;;15.97;100.00;98536.56;2627807;28;20083;-85
2022/07/05 03:40:49;;;;;;;4.82;4.32;;;;;;;15.98;100.00;98540.91;2628264;28;20482;-85
2022/07/05 03:42:05;;;;;;;4.80;4.40;;;;;;;15.95;100.00;98541.91;2628092;28;20060;-84
2022/07/05 03:43:20;;;;;;;6.72;4.82;;;;;;;16.01;100.00;98536.34;2628290;28;20076;-85
2022/07/05 03:44:36;;;;;;;5.38;4.88;;;;;;;16.02;100.00;98539.81;2627745;28;20044;-85
2022/07/05 03:45:54;;;;;;;5.40;4.70;;;;;;;16.01;100.00;98538.97;2627843;28;20044;-85
2022/07/05 03:47:09;;;;;;;6.93;4.60;;;;;;;15.92;100.00;98539.41;2627786;28;20048;-85
2022/07/05 03:48:25;;;;;;;6.03;4.90;;;;;;;15.88;100.00;98543.94;2628050;28;20423;-85
2022/07/05 03:49:40;;;;;;;6.63;4.57;;;;;;;15.90;100.00;98547.41;2628314;28;20044;-85
2022/07/05 03:50:56;;;;;;;6.45;4.55;;;;;;;15.93;100.00;98549.03;2628082;28;20044;-85
2022/07/05 03:52:12;;;;;;;6.13;5.18;;;;;;;15.88;100.00;98549.22;2627904;28;20044;-85
2022/07/05 03:53:27;;;;;;;6.20;5.03;;;;;;;15.82;100.00;98550.38;2628099;28;20176;-86
2022/07/05 03:54:44;;;;;;;5.90;5.28;;;;;;;15.89;100.00;98561.53;2627306;28;20055;-86
2022/07/05 03:56:00;;;;;;;7.45;5.28;;;;;;;15.98;100.00;98551.47;2627670;28;20043;-86
2022/07/05 03:57:16;;;;;;;5.85;5.22;;;;;;;15.98;100.00;98557.59;2627986;28;20134;-86
2022/07/05 03:58:32;;;;;;;7.63;5.38;;;;;;;15.90;100.00;98554.47;2627671;28;20043;-86
2022/07/05 03:59:47;;;;;;;5.45;4.93;;;;;;;16.08;100.00;98560.66;2627515;28;20113;-88
2022/07/05 04:01:03;;;;;;;6.00;5.43;;;;;;;16.03;100.00;98555.59;2627998;28;20047;-85
2022/07/05 04:02:19;;;;;;;6.13;5.53;;;;;;;15.97;100.00;98565.59;2627810;28;20078;-87
2022/07/05 04:03:34;;;;;;;5.97;4.72;;;;;;;16.03;100.00;98560.88;2627931;28;20085;-85
2022/07/05 04:04:50;;;;;;;9.25;5.20;;;;;;;16.10;100.00;98564.06;2627512;28;20040;-85
2022/07/05 04:06:06;;;;;;;5.32;4.82;;;;;;;16.18;100.00;98572.47;2627538;28;20051;-85
2022/07/05 04:07:22;;;;;;;7.03;4.63;;;;;;;16.31;100.00;98575.38;2627882;28;20047;-86
2022/07/05 04:08:37;;;;;;;5.25;4.50;;;;;;;16.36;100.00;98573.34;2627580;28;20169;-86
2022/07/05 04:09:53;;;;;;;7.43;4.35;;;;;;;16.40;100.00;98579.34;2616615;28;20052;-87
2022/07/05 04:11:12;;;;;;;5.10;4.60;;;;;;;16.40;100.00;98578.47;2610548;28;20078;-86
2022/07/05 04:12:28;;;;;;;5.32;4.50;;;;;;;16.42;100.00;98574.81;2621409;28;20052;-85
2022/07/05 04:13:43;;;;;;;11.23;4.53;;;;;;;16.50;100.00;98570.03;2627956;28;20050;-85
2022/07/05 04:14:59;;;;;;;7.22;4.78;;;;;;;16.50;100.00;98577.97;2627633;28;20093;-86
2022/07/05 04:16:15;;;;;;;5.28;4.78;;;;;;;16.49;100.00;98578.88;2627706;28;20173;-88
2022/07/05 04:17:30;;;;;;;5.57;4.97;;;;;;;16.45;100.00;98574.66;2627787;28;20055;-85
2022/07/05 04:18:46;;;;;;;5.25;4.75;;;;;;;16.54;100.00;98578.63;2616194;28;20048;-85
2022/07/05 04:20:01;;;;;;;7.97;4.53;;;;;;;16.53;100.00;98582.22;2620868;28;20044;-85
2022/07/05 04:21:17;;;;;;;5.78;4.75;;;;;;;16.44;100.00;98578.25;2627820;28;20059;-86
2022/07/05 04:22:33;;;;;;;5.63;5.13;;;;;;;16.40;100.00;98579.34;2628019;28;20052;-86
2022/07/05 04:23:48;;;;;;;8.70;4.80;;;;;;;16.44;100.00;98580.88;2616337;28;20048;-85
2022/07/05 04:25:16;;;;;;;8.32;4.88;;;;;;;16.51;100.00;98578.78;2620822;28;20048;-86
2022/07/05 04:26:32;;;;;;;7.10;5.47;;;;;;;16.58;100.00;98574.94;2627821;28;20051;-87
2022/07/05 04:27:50;;;;;;;5.40;4.88;;;;;;;16.61;100.00;98582.69;2627598;28;20048;-85
2022/07/05 04:29:06;;;;;;;10.77;5.25;;;;;;;16.63;100.00;98579.97;2627293;28;20052;-86
2022/07/05 04:30:24;;;;;;;8.13;4.90;;;;;;;16.62;100.00;98579.13;2627749;28;20097;-86
2022/07/05 04:31:40;;;;;;;8.15;5.10;;;;;;;16.61;100.00;98577.41;2627754;28;20039;-85
2022/07/05 04:32:55;;;;;;;5.53;4.97;;;;;;;16.59;100.00;98579.28;2627541;28;20185;-85
2022/07/05 04:34:11;;;;;;;6.88;5.13;;;;;;;16.62;100.00;98578.25;2627200;28;20047;-85
2022/07/05 04:35:27;;;;;;;6.38;5.13;;;;;;;16.69;100.00;98584.06;2627623;28;20047;-85
2022/07/05 04:36:42;;;;;;;6.03;5.38;;;;;;;16.70;100.00;98580.53;2627577;28;20273;-86
2022/07/05 04:37:58;;;;;;;7.90;5.18;;;;;;;16.68;100.00;98583.22;2627501;28;20052;-86
2022/07/05 04:39:13;;;;;;;8.88;5.28;;;;;;;16.68;100.00;98580.59;2627078;28;20082;-85
2022/07/05 04:40:29;;;;;;;6.88;4.68;;;;;;;16.73;100.00;98581.19;2627238;28;20363;-86
2022/07/05 04:41:45;;;;;;;5.88;5.10;;;;;;;16.75;100.00;98584.63;2627307;28;20097;-85
2022/07/05 04:43:01;;;;;;;5.57;4.63;;;;;;;16.76;100.00;98581.06;2627639;28;20082;-85
2022/07/05 04:44:16;;;;;;;7.75;4.75;;;;;;;16.79;100.00;98586.19;2627227;28;20052;-86
2022/07/05 04:45:32;;;;;;;6.55;4.68;;;;;;;16.79;100.00;98594.13;2627426;28;20056;-86
2022/07/05 04:46:47;;;;;;;7.40;5.30;;;;;;;16.83;100.00;98586.03;2627567;28;20122;-86
2022/07/05 04:48:03;;;;;;;7.13;4.85;;;;;;;16.90;100.00;98595.34;2627390;28;20063;-85
2022/07/05 04:49:19;;;;;;;6.60;5.80;;;;;;;16.89;100.00;98590.97;2627252;28;20051;-86
2022/07/05 04:50:35;;;;;;;9.20;5.10;;;;;;;16.88;100.00;98594.56;2627504;28;20048;-87
2022/07/05 04:51:50;;;;;;;6.10;5.40;;;;;;;16.90;100.00;98597.97;2627460;28;20055;-87
2022/07/05 04:53:06;;;;;;;8.10;5.78;;;;;;;16.91;100.00;98595.28;2616266;28;20055;-86
2022/07/05 04:54:21;;;;;;;8.05;5.45;;;;;;;16.99;100.00;98596.69;2620518;28;20482;-86
2022/07/05 04:55:37;;;;;;;8.20;5.00;;;;;;;16.95;100.00;98602.09;2627544;28;20044;-86
2022/07/05 04:56:53;;;;;;;9.05;5.38;;;;;;;16.94;100.00;98610.13;2627293;28;20059;-86
2022/07/05 04:58:08;;;;;;;5.72;4.80;;;;;;;16.99;100.00;98602.84;2627405;28;20044;-86
2022/07/05 04:59:24;;;;;;;6.30;4.57;;;;;;;17.15;100.00;98594.97;2627053;28;20048;-87
2022/07/05 05:00:39;;;;;;;6.68;4.63;;;;;;;17.22;100.00;98600.78;2627392;28;20051;-87
2022/07/05 05:01:55;;;;;;;9.32;4.70;;;;;;;17.29;100.00;98596.03;2627256;28;20073;-87
2022/07/05 05:03:11;;;;;;;6.82;5.00;;;;;;;17.18;100.00;98597.44;2627079;28;20455;-86
2022/07/05 05:04:26;;;;;;;5.60;4.63;;;;;;;17.09;100.00;98603.22;2627074;28;20043;-86
2022/07/05 05:05:41;;;;;;;8.88;4.70;;;;;;;17.04;100.00;98608.75;2627233;28;20410;-85
2022/07/05 05:06:58;;;;;;;6.05;4.60;;;;;;;17.12;100.00;98597.78;2626136;28;20477;-85
2022/07/05 05:08:13;;;;;;;5.28;4.15;;;;;;;17.02;100.00;98599.19;2627179;28;20055;-84
2022/07/05 05:09:29;;;;;;;5.30;4.30;;;;;;;17.15;100.00;98602.03;2626700;28;20322;-85
2022/07/05 05:10:44;;;;;;;9.40;4.10;;;;;;;17.15;100.00;98602.91;2627209;28;20422;-88
2022/07/05 05:12:00;;;;;;;7.57;4.05;;;;;;;17.12;100.00;98600.44;2627271;28;20092;-86
2022/07/05 05:13:16;;;;;;;7.72;3.70;;;;;;;17.10;100.00;98601.44;2627381;28;20051;-84
2022/07/05 05:14:31;;;;;;;9.00;4.05;;;;;;;17.10;100.00;98598.78;2627090;28;20424;-85
2022/07/05 05:15:47;;;;;;;6.05;3.90;;;;;;;17.05;100.00;98596.38;2627278;28;20062;-86
2022/07/05 05:17:03;;;;;;;7.00;3.80;;;;;;;16.98;100.00;98601.09;2627267;28;20056;-86
2022/07/05 05:18:21;;;;;;;5.43;4.10;;;;;;;17.01;100.00;98598.31;2627159;28;20101;-86
2022/07/05 05:19:36;;;;;;;6.28;4.30;;;;;;;17.01;100.00;98606.25;2626805;28;20051;-86
2022/07/05 05:20:52;;;;;;;5.70;4.47;;;;;;;17.03;100.00;98601.72;2627175;28;20052;-85
2022/07/05 05:22:07;;;;;;;5.28;4.70;;;;;;;17.04;100.00;98602.59;2627131;28;20048;-85
2022/07/05 05:23:23;;;;;;;8.00;4.70;;;;;;;17.06;100.00;98598.09;2627081;28;20054;-85
2022/07/05 05:24:38;;;;;;;9.38;4.97;;;;;;;17.12;100.00;98600.44;2626880;28;20085;-84
2022/07/05 05:25:54;;;;;;;5.65;5.05;;;;;;;17.14;100.00;98598.56;2627215;28;20082;-85
2022/07/05 05:27:10;;;;;;;6.10;4.80;;;;;;;17.17;100.00;98595.75;2626882;28;21065;-90
2022/07/05 05:28:25;;;;;;;5.70;4.70;;;;;;;17.16;100.00;98595.81;2627019;28;20133;-88
2022/07/05 05:29:41;;;;;;;7.03;4.72;;;;;;;17.17;100.00;98593.09;2627062;28;20406;-86
2022/07/05 05:30:56;;;;;;;5.85;4.82;;;;;;;17.19;100.00;98600.97;2615827;28;20099;-85
2022/07/05 05:32:12;;;;;;;7.25;5.03;;;;;;;17.19;100.00;98595.66;2620014;28;21154;-89
2022/07/05 05:33:27;;;;;;;6.72;4.90;;;;;;;17.22;100.00;98598.16;2627158;28;20054;-86
2022/07/05 05:34:43;;;;;;;5.80;4.95;;;;;;;17.20;100.00;98594.72;2627075;28;20063;-86
2022/07/05 05:35:58;;;;;;;6.95;5.10;;;;;;;17.23;100.00;98600.69;2626851;28;20048;-85
2022/07/05 05:37:14;;;;;;;5.30;4.80;;;;;;;17.22;100.00;98603.44;2615854;28;20053;-85
2022/07/05 05:38:30;;;;;;;7.65;5.03;;;;;;;17.25;100.00;98603.28;2620100;28;20044;-85
2022/07/05 05:39:45;;;;;;;5.13;4.65;;;;;;;17.29;100.00;98611.91;2626823;28;20468;-85
2022/07/05 05:41:01;;;;;;;6.82;4.53;;;;;;;17.32;100.00;98604.66;2626861;28;20066;-85
2022/07/05 05:42:16;;;;;;;5.10;4.30;;;;;;;17.38;100.00;98600.81;2626583;28;20713;-86
2022/07/05 05:43:32;;;;;;;8.90;4.53;;;;;;;17.45;100.00;98609.28;2627018;28;20052;-86
2022/07/05 05:44:48;;;;;;;5.65;4.45;;;;;;;17.52;100.00;98602.72;2626760;28;20048;-89
2022/07/05 05:46:03;;;;;;;4.90;4.13;;;;;;;17.61;100.00;98609.31;2627003;28;20059;-85
2022/07/05 05:47:19;;;;;;;6.13;4.32;;;;;;;17.63;100.00;98607.44;2626670;28;20150;-85
2022/07/05 05:48:35;;;;;;;5.35;4.10;;;;;;;17.64;100.00;98614.44;2615552;28;20055;-86
2022/07/05 05:49:50;;;;;;;5.95;4.35;;;;;;;17.70;100.00;98608.81;2619982;28;20075;-85
2022/07/05 05:51:06;;;;;;;5.60;3.97;;;;;;;17.70;100.00;98603.53;2615707;28;20052;-85
2022/07/05 05:52:21;;;;;;;8.88;4.78;;;;;;;17.68;100.00;98605.41;2619967;28;20086;-84
2022/07/05 05:53:37;;;;;;;7.10;4.32;;;;;;;17.71;100.00;98610.53;2626803;28;20575;-89